Time;durP1;ratioP1;P1;durP2;ratioP2;P2;SDS_P1;SDS_P2;PMS_P1;PMS_P2;Temp;Humidity;BMP_temperature;BMP_pressure;BME280_temperature;BME280_humidity;BME280_pressure;Samples;Min_cycle;Max_cycle;Signal;HPM_P1;HPM_P2
2022/01/08 00:02:14;;;;;;;9.55;2.42;;;;;;;0.73;75.62;99726.53;4963480;28;20446;-55
2022/01/08 00:04:40;;;;;;;2.78;1.50;;;;;;;0.76;75.94;99726.66;4959609;28;20067;-51
2022/01/08 00:07:08;;;;;;;4.47;2.22;;;;;;;0.77;75.18;99728.38;4946796;28;20055;-55
2022/01/08 00:09:34;;;;;;;3.83;1.50;;;;;;;0.79;75.61;99715.66;4955165;28;20039;-49
2022/01/08 00:12:01;;;;;;;4.53;1.45;;;;;;;0.79;74.78;99705.47;4964076;28;20042;-51
2022/01/08 00:14:28;;;;;;;4.07;1.85;;;;;;;0.79;75.51;99705.47;4961603;28;20125;-51
2022/01/08 00:16:55;;;;;;;4.93;1.75;;;;;;;0.82;75.44;99697.03;4959011;28;20047;-56
2022/01/08 00:19:22;;;;;;;5.45;1.70;;;;;;;0.83;75.09;99698.78;4964310;28;20042;-55
2022/01/08 00:21:49;;;;;;;5.38;1.70;;;;;;;0.84;75.81;99697.97;4967594;28;20133;-52
2022/01/08 00:24:15;;;;;;;4.22;2.03;;;;;;;0.84;76.13;99692.88;4965896;28;20054;-55
2022/01/08 00:26:42;;;;;;;5.60;2.10;;;;;;;0.87;75.24;99692.94;4965605;28;20051;-52
2022/01/08 00:29:09;;;;;;;5.35;2.15;;;;;;;0.85;75.65;99699.69;4966900;28;20051;-49
2022/01/08 00:31:35;;;;;;;4.35;1.45;;;;;;;0.87;75.94;99692.94;4968371;28;20042;-54
2022/01/08 00:34:02;;;;;;;3.67;1.20;;;;;;;0.88;76.71;99702.34;4967799;28;20054;-51
2022/01/08 00:36:28;;;;;;;4.75;1.63;;;;;;;0.90;76.30;99698.16;4966116;28;20074;-54
2022/01/08 00:38:55;;;;;;;5.55;2.22;;;;;;;0.93;76.35;99695.69;4966436;28;20051;-49
2022/01/08 00:41:21;;;;;;;4.47;1.52;;;;;;;0.95;76.42;99694.03;4967783;28;20105;-53
2022/01/08 00:43:48;;;;;;;4.28;2.17;;;;;;;0.96;76.34;99675.41;4970224;28;20082;-50
2022/01/08 00:46:15;;;;;;;8.38;2.22;;;;;;;0.97;76.71;99682.22;4964408;28;20128;-52
2022/01/08 00:48:43;;;;;;;4.38;1.90;;;;;;;0.97;75.92;99674.56;4965340;28;20108;-50
2022/01/08 00:51:10;;;;;;;4.53;1.90;;;;;;;1.00;75.74;99664.47;4959837;28;20558;-49
2022/01/08 00:53:38;;;;;;;4.88;2.40;;;;;;;1.03;76.05;99648.38;4964481;28;20097;-58
2022/01/08 00:56:05;;;;;;;5.57;2.35;;;;;;;1.05;76.05;99640.78;4959800;28;20054;-50
2022/01/08 00:58:32;;;;;;;6.07;2.08;;;;;;;1.07;76.41;99655.31;4957538;28;20117;-51
2022/01/08 01:00:58;;;;;;;4.00;1.83;;;;;;;1.08;76.24;99648.53;4955841;28;20055;-54
2022/01/08 01:03:25;;;;;;;6.90;2.28;;;;;;;1.10;75.20;99646.88;4957706;28;20113;-50
2022/01/08 01:05:52;;;;;;;3.13;1.88;;;;;;;1.11;75.47;99646.03;4958471;28;20749;-53
2022/01/08 01:08:18;;;;;;;4.55;1.83;;;;;;;1.14;76.40;99647.00;4966958;28;20526;-53
2022/01/08 01:10:45;;;;;;;5.85;1.52;;;;;;;1.17;76.51;99651.34;4965272;28;20597;-53
2022/01/08 01:13:12;;;;;;;5.82;1.75;;;;;;;1.20;76.33;99651.44;4963044;28;20058;-50
2022/01/08 01:15:38;;;;;;;4.18;1.25;;;;;;;1.22;75.49;99639.56;4961873;28;20046;-51
2022/01/08 01:18:05;;;;;;;5.88;1.45;;;;;;;1.24;76.48;99637.94;4961433;28;20051;-49
2022/01/08 01:20:32;;;;;;;6.03;1.67;;;;;;;1.27;75.96;99647.34;4964882;28;20058;-56
2022/01/08 01:23:07;;;;;;;6.38;2.00;;;;;;;1.28;75.65;99639.75;4967512;28;20081;-52
2022/01/08 01:25:39;;;;;;;3.85;1.83;;;;;;;1.32;75.00;99639.84;4967945;28;20201;-53
2022/01/08 01:28:32;;;;;;;7.13;1.65;;;;;;;1.31;75.76;99643.22;4964127;28;20455;-57
2022/01/08 01:41:07;;;;;;;6.97;2.03;;;;;;;1.33;75.95;99642.44;4965839;28;20117;-55
2022/01/08 01:42:20;;;;;;;8.98;1.90;;;;;;;1.32;76.34;99644.94;4966927;28;20050;-58
2022/01/08 01:47:35;;;;;;;4.90;1.42;;;;;;;1.34;76.59;99648.38;4963642;28;20050;-52
2022/01/08 01:52:41;;;;;;;6.18;3.20;;;;;;;1.35;75.94;99640.78;5036703;28;20392;-58
2022/01/08 01:55:08;;;;;;;3.85;2.83;;;;;;;1.37;76.56;99634.03;5019534;28;20077;-51
2022/01/08 01:57:35;;;;;;;5.97;3.30;;;;;;;1.38;77.16;99625.56;5016308;28;20130;-52
2022/01/08 02:00:04;;;;;;;5.38;3.72;;;;;;;1.41;76.00;99617.13;5016485;28;20123;-55
2022/01/08 02:02:31;;;;;;;6.15;3.33;;;;;;;1.43;76.66;99612.94;5050094;28;20057;-48
2022/01/08 02:04:57;;;;;;;5.88;3.28;;;;;;;1.44;76.02;99614.66;5022491;28;20057;-51
2022/01/08 02:07:27;;;;;;;5.43;3.10;;;;;;;1.44;76.01;99614.66;5022457;28;20124;-53
2022/01/08 02:09:55;;;;;;;5.88;3.15;;;;;;;1.46;75.58;99615.56;5022577;28;20057;-52
2022/01/08 02:12:22;;;;;;;4.97;2.60;;;;;;;1.49;76.14;99617.34;5020592;28;20050;-50
2022/01/08 02:14:50;;;;;;;6.40;3.00;;;;;;;1.50;75.32;99614.84;5019620;28;20477;-52
2022/01/08 02:17:18;;;;;;;5.82;2.97;;;;;;;1.52;76.85;99608.06;5023183;28;20112;-54
2022/01/08 02:19:45;;;;;;;4.95;2.55;;;;;;;1.54;76.75;99609.00;5021304;28;20056;-53
2022/01/08 02:22:15;;;;;;;3.67;2.63;;;;;;;1.57;76.60;99602.22;5021663;28;20037;-52
2022/01/08 02:24:44;;;;;;;6.70;2.60;;;;;;;1.57;77.07;99604.78;5021110;28;20050;-53
2022/01/08 02:27:11;;;;;;;4.20;2.58;;;;;;;1.59;76.65;99603.13;5014027;28;20046;-54
2022/01/08 02:29:38;;;;;;;4.30;2.67;;;;;;;1.60;76.14;99589.53;5018081;28;20045;-56
2022/01/08 02:32:09;;;;;;;6.03;3.55;;;;;;;1.64;75.79;99581.13;5021413;28;20112;-55
2022/01/08 02:34:38;;;;;;;7.38;2.20;;;;;;;1.65;75.97;99568.41;5021325;28;20537;-57
2022/01/08 02:37:07;;;;;;;6.15;2.38;;;;;;;1.65;77.07;99557.31;5023209;28;20619;-52
2022/01/08 02:39:40;;;;;;;7.30;2.30;;;;;;;1.68;75.90;99547.19;5022328;28;20704;-56
2022/01/08 02:42:09;;;;;;;6.57;2.33;;;;;;;1.71;75.82;99539.63;5004902;28;20108;-56
2022/01/08 02:44:35;;;;;;;7.15;2.53;;;;;;;1.75;76.96;99535.44;5004036;28;20112;-58
2022/01/08 02:47:03;;;;;;;5.40;2.45;;;;;;;1.77;77.05;99534.69;5001986;28;20054;-55
2022/01/08 02:49:34;;;;;;;3.13;1.92;;;;;;;1.78;76.75;99528.75;5019737;28;20120;-55
2022/01/08 02:52:03;;;;;;;3.38;1.88;;;;;;;1.79;75.86;99520.25;5016281;28;20042;-53
2022/01/08 02:54:30;;;;;;;2.70;1.75;;;;;;;1.82;77.05;99518.59;5019766;28;20104;-56
2022/01/08 02:56:57;;;;;;;4.95;1.55;;;;;;;1.86;76.19;99517.84;5013926;28;20127;-50
2022/01/08 02:59:24;;;;;;;4.80;2.15;;;;;;;1.86;75.88;99511.03;5019312;28;20057;-53
2022/01/08 03:01:52;;;;;;;3.80;2.08;;;;;;;1.90;75.50;99507.72;5012225;28;20480;-51
2022/01/08 03:04:21;;;;;;;1.75;1.65;;;;;;;1.94;76.25;99511.22;5004004;28;20512;-53
2022/01/08 03:06:48;;;;;;;2.92;2.60;;;;;;;1.97;75.58;99502.78;5003587;28;20054;-57
2022/01/08 03:09:14;;;;;;;8.15;2.28;;;;;;;2.00;75.63;99497.75;5006729;28;20762;-55
2022/01/08 03:11:43;;;;;;;2.78;1.80;;;;;;;2.01;76.70;99495.22;5001228;28;20057;-54
2022/01/08 03:14:10;;;;;;;7.05;1.98;;;;;;;2.03;76.01;99487.59;5006818;28;20074;-54
2022/01/08 03:16:38;;;;;;;6.32;2.63;;;;;;;2.05;75.71;99481.69;5004958;28;20050;-56
2022/01/08 03:19:15;;;;;;;4.15;2.17;;;;;;;2.08;75.17;99485.13;5002971;28;20045;-55
2022/01/08 03:21:44;;;;;;;3.42;2.00;;;;;;;2.09;75.75;99472.41;5005828;28;20042;-56
2022/01/08 03:24:16;;;;;;;4.68;1.95;;;;;;;2.12;76.23;99463.94;5003951;28;20108;-49
2022/01/08 03:26:43;;;;;;;2.00;1.48;;;;;;;2.12;75.86;99464.81;5004401;28;20049;-53
2022/01/08 03:29:09;;;;;;;5.85;1.83;;;;;;;2.17;76.99;99450.44;5003990;28;20552;-53
2022/01/08 03:31:36;;;;;;;4.18;2.20;;;;;;;2.20;75.59;99448.78;5006669;28;20046;-54
2022/01/08 03:34:05;;;;;;;5.25;3.28;;;;;;;2.23;76.58;99431.81;5002056;28;20049;-54
2022/01/08 03:36:32;;;;;;;3.63;1.75;;;;;;;2.26;75.95;99424.22;5005690;28;20046;-55
2022/01/08 03:38:59;;;;;;;1.95;1.73;;;;;;;2.29;76.34;99429.41;5015891;28;20612;-56
2022/01/08 03:41:25;;;;;;;2.47;2.28;;;;;;;2.27;75.41;99419.97;5007361;28;20096;-50
2022/01/08 03:43:52;;;;;;;6.03;2.50;;;;;;;2.27;76.40;99415.72;5000263;28;20050;-58
2022/01/08 03:46:20;;;;;;;5.30;2.08;;;;;;;2.26;75.99;99414.00;5007499;28;20054;-50
2022/01/08 03:49:13;;;;;;;2.50;2.30;;;;;;;2.25;76.10;99406.28;5003050;28;20050;-52
2022/01/08 03:51:35;;;;;;;4.05;1.95;;;;;;;2.27;76.23;99400.38;5005446;28;20049;-51
2022/01/08 03:54:02;;;;;;;4.53;1.40;;;;;;;2.28;76.11;99391.91;4994522;28;20104;-59
2022/01/08 03:56:29;;;;;;;4.00;1.48;;;;;;;2.28;75.55;99381.69;5004674;28;20096;-55
2022/01/08 03:58:55;;;;;;;3.45;2.20;;;;;;;2.33;76.19;99388.56;4997226;28;20051;-57
2022/01/08 04:01:22;;;;;;;2.78;1.73;;;;;;;2.35;75.33;99377.53;5002605;28;20116;-55
2022/01/08 04:03:49;;;;;;;1.90;1.70;;;;;;;2.37;75.03;99369.91;5000732;28;20494;-51
2022/01/08 04:06:16;;;;;;;5.15;1.98;;;;;;;2.38;75.10;99371.63;5000321;28;20413;-54
2022/01/08 04:08:42;;;;;;;2.92;1.85;;;;;;;2.40;76.54;99362.31;4999092;28;20058;-53
2022/01/08 04:11:09;;;;;;;5.07;2.47;;;;;;;2.39;75.21;99350.34;5000522;28;20060;-53
2022/01/08 04:13:39;;;;;;;7.95;1.75;;;;;;;2.41;75.37;99338.47;5003657;28;20080;-53
2022/01/08 04:16:11;;;;;;;;;;;;;;;2.37;76.77;99324.78;5000836;28;20309;-50
2022/01/08 04:18:38;;;;;;;5.10;2.50;;;;;;;2.37;75.46;99316.25;5004100;28;19979;-54
2022/01/08 04:23:53;;;;;;;9.00;3.95;;;;;;;2.38;76.23;99305.16;4998672;28;20049;-51
2022/01/08 04:26:22;;;;;;;6.88;3.83;;;;;;;2.42;75.66;99302.72;4998023;28;20046;-51
2022/01/08 04:28:49;;;;;;;7.07;2.72;;;;;;;2.46;75.94;99303.63;5004809;28;20120;-57
2022/01/08 04:31:16;;;;;;;3.85;2.40;;;;;;;2.48;76.77;99286.63;5000975;28;20135;-54
2022/01/08 04:33:42;;;;;;;3.60;2.35;;;;;;;2.50;77.00;99281.53;5006696;28;20050;-54
2022/01/08 04:36:09;;;;;;;4.38;2.78;;;;;;;2.52;76.53;99279.84;4998598;28;20863;-53
2022/01/08 04:38:36;;;;;;;4.18;2.75;;;;;;;2.52;76.85;99278.16;5001520;28;20521;-51
2022/01/08 04:41:03;;;;;;;7.53;3.22;;;;;;;2.56;76.54;99269.72;5002122;28;20100;-54
2022/01/08 04:43:30;;;;;;;5.10;2.60;;;;;;;2.60;77.35;99275.72;5002877;28;20092;-53
2022/01/08 04:45:57;;;;;;;5.80;2.08;;;;;;;2.62;77.36;99268.09;5000904;28;20081;-55
2022/01/08 04:48:23;;;;;;;8.05;3.25;;;;;;;2.67;77.34;99256.28;5005409;28;20058;-50
2022/01/08 04:50:50;;;;;;;4.78;2.97;;;;;;;2.72;76.46;99253.75;4997060;28;20093;-58
2022/01/08 04:53:17;;;;;;;8.85;3.80;;;;;;;2.75;77.38;99248.72;5001378;28;20046;-55
2022/01/08 04:55:43;;;;;;;7.00;3.95;;;;;;;2.79;76.68;99243.69;5002375;28;20096;-57
2022/01/08 04:58:10;;;;;;;5.20;2.53;;;;;;;2.82;78.10;99241.16;5000916;28;20076;-51
2022/01/08 05:00:37;;;;;;;6.35;3.20;;;;;;;2.88;76.92;99234.41;5002541;28;20505;-55
2022/01/08 05:03:04;;;;;;;6.55;3.05;;;;;;;2.95;76.66;99238.78;5000871;28;20049;-56
2022/01/08 05:05:31;;;;;;;7.03;3.92;;;;;;;2.99;77.85;99232.00;5004352;28;20050;-52
2022/01/08 05:07:58;;;;;;;5.35;3.00;;;;;;;3.03;78.01;99229.53;4997040;28;20116;-52
2022/01/08 05:10:24;;;;;;;7.50;3.50;;;;;;;3.08;78.36;99219.38;5006657;28;20107;-52
2022/01/08 05:12:51;;;;;;;7.28;2.92;;;;;;;3.14;78.54;99219.44;4996461;28;20057;-59
2022/01/08 05:15:18;;;;;;;10.50;2.53;;;;;;;3.22;78.69;99209.31;5006925;28;20889;-53
2022/01/08 05:17:48;;;;;;;12.45;3.63;;;;;;;3.28;78.42;99204.28;4999684;28;20046;-54
2022/01/08 05:20:14;;;;;;;11.27;3.70;;;;;;;3.34;79.07;99200.94;5003860;28;20053;-53
2022/01/08 05:22:52;;;;;;;10.93;3.00;;;;;;;3.40;79.45;99192.47;5000658;28;20726;-50
2022/01/08 05:25:21;;;;;;;8.32;3.45;;;;;;;3.45;78.81;99203.66;5006937;28;20054;-53
2022/01/08 05:27:49;;;;;;;8.63;2.88;;;;;;;3.50;79.53;99198.56;4997516;28;20101;-56
2022/01/08 05:30:18;;;;;;;11.43;4.60;;;;;;;3.56;79.12;99188.41;5004154;28;20053;-54
2022/01/08 05:32:46;;;;;;;5.68;2.72;;;;;;;3.57;80.67;99180.75;5001100;28;20066;-53
2022/01/08 05:35:13;;;;;;;9.85;3.67;;;;;;;3.60;79.81;99175.69;4999505;28;20049;-55
2022/01/08 05:37:41;;;;;;;9.00;3.28;;;;;;;3.64;80.78;99175.72;5000084;28;20058;-57
2022/01/08 05:40:08;;;;;;;7.03;3.38;;;;;;;3.66;80.91;99169.75;5002361;28;20099;-52
2022/01/08 05:42:35;;;;;;;11.15;2.92;;;;;;;3.71;80.20;99157.00;5000663;28;20619;-51
2022/01/08 05:45:03;;;;;;;11.18;3.70;;;;;;;3.75;80.81;99155.34;4999768;28;20053;-52
2022/01/08 05:47:33;;;;;;;11.18;3.78;;;;;;;3.76;80.88;99144.25;5001097;28;20048;-51
2022/01/08 05:50:01;;;;;;;7.93;3.53;;;;;;;3.78;80.48;99133.16;4995702;28;20050;-52
2022/01/08 05:52:27;;;;;;;9.52;3.05;;;;;;;3.81;80.75;99128.06;5000430;28;20046;-55
2022/01/08 05:54:54;;;;;;;8.48;2.92;;;;;;;3.83;80.90;99120.41;5001959;28;20049;-56
2022/01/08 05:57:20;;;;;;;9.35;2.58;;;;;;;3.85;81.37;99113.59;5001305;28;20057;-55
2022/01/08 05:59:47;;;;;;;7.10;2.63;;;;;;;3.86;81.68;99103.34;5000603;28;20722;-58
2022/01/08 06:02:14;;;;;;;8.50;3.13;;;;;;;3.89;81.38;99111.91;5003614;28;20069;-49
2022/01/08 06:04:41;;;;;;;11.50;3.00;;;;;;;3.91;81.36;99103.41;4999110;28;20045;-49
2022/01/08 06:07:09;;;;;;;8.82;3.45;;;;;;;3.92;81.59;99091.47;5003590;28;20478;-55
2022/01/08 06:09:35;;;;;;;9.48;3.47;;;;;;;3.92;82.10;99071.81;5001618;28;20078;-56
2022/01/08 06:12:02;;;;;;;11.30;3.45;;;;;;;3.93;81.63;99070.09;5002165;28;20046;-55
2022/01/08 06:14:28;;;;;;;11.05;3.28;;;;;;;3.92;81.17;99053.03;5003690;28;20100;-49
2022/01/08 06:16:55;;;;;;;7.22;3.13;;;;;;;3.95;81.45;99045.38;5000246;28;20049;-55
2022/01/08 06:19:22;;;;;;;8.07;3.88;;;;;;;3.94;80.77;99034.25;4997522;28;20092;-55
2022/01/08 06:21:48;;;;;;;9.55;3.25;;;;;;;3.94;81.95;99025.69;5000054;28;20042;-51
2022/01/08 06:24:15;;;;;;;7.75;3.17;;;;;;;3.96;81.85;99008.66;5005684;28;20053;-54
2022/01/08 06:26:42;;;;;;;8.52;3.40;;;;;;;3.96;82.21;99003.53;4999924;28;20104;-50
2022/01/08 06:29:08;;;;;;;5.22;2.65;;;;;;;3.96;82.04;98996.69;5002869;28;20053;-52
2022/01/08 06:31:35;;;;;;;7.82;2.58;;;;;;;3.97;81.99;98994.97;5000933;28;20108;-56
2022/01/08 06:34:03;;;;;;;5.75;3.13;;;;;;;3.99;82.26;98986.47;5003125;28;20073;-53
2022/01/08 06:36:30;;;;;;;5.03;3.05;;;;;;;3.98;82.42;98969.38;4996733;28;20065;-54
2022/01/08 06:38:57;;;;;;;7.03;3.17;;;;;;;3.98;82.80;98961.69;5007047;28;20096;-53
2022/01/08 06:41:24;;;;;;;6.53;2.63;;;;;;;3.99;82.43;98957.44;5000119;28;20498;-55
2022/01/08 06:43:50;;;;;;;7.75;3.22;;;;;;;4.02;82.18;98967.69;5001794;28;20049;-49
2022/01/08 06:46:17;;;;;;;6.53;2.92;;;;;;;4.02;82.22;98962.56;5002841;28;20736;-52
2022/01/08 06:48:44;;;;;;;6.13;2.95;;;;;;;4.06;82.43;98958.31;5006563;28;20045;-55
2022/01/08 06:51:11;;;;;;;10.80;1.60;;;;;;;4.06;83.28;98958.31;5003913;28;20476;-56
2022/01/08 06:53:37;;;;;;;6.68;2.67;;;;;;;4.11;82.86;98941.25;5005997;28;20096;-53
2022/01/08 06:56:05;;;;;;;6.72;2.95;;;;;;;4.15;82.13;98944.72;5008396;28;20049;-54
2022/01/08 06:58:32;;;;;;;6.13;2.78;;;;;;;4.16;82.71;98928.47;5003825;28;20053;-55
2022/01/08 07:00:59;;;;;;;9.07;1.83;;;;;;;4.19;82.47;98928.50;4999682;28;20577;-52
2022/01/08 07:03:26;;;;;;;7.05;3.30;;;;;;;4.20;82.57;98922.53;4999571;28;20064;-53
2022/01/08 07:05:53;;;;;;;2.70;2.13;;;;;;;4.22;82.64;98913.16;5010862;28;20048;-53
2022/01/08 07:08:19;;;;;;;4.93;2.67;;;;;;;4.25;82.70;98915.69;4998579;28;20049;-53
2022/01/08 07:10:46;;;;;;;5.63;1.85;;;;;;;4.27;81.53;98901.19;5007033;28;20500;-54
2022/01/08 07:13:12;;;;;;;8.75;1.52;;;;;;;4.28;82.31;98908.03;5005047;28;21034;-49
2022/01/08 07:15:39;;;;;;;13.43;2.85;;;;;;;4.30;82.38;98890.97;5002441;28;20125;-55
2022/01/08 07:18:06;;;;;;;6.10;3.33;;;;;;;4.35;82.33;98898.66;5003517;28;20136;-49
2022/01/08 07:20:32;;;;;;;8.52;2.75;;;;;;;4.36;82.47;98875.59;5008460;28;20049;-55
2022/01/08 07:22:59;;;;;;;7.50;3.58;;;;;;;4.42;82.59;98868.78;5004878;28;20076;-54
2022/01/08 07:25:26;;;;;;;8.23;2.78;;;;;;;4.44;82.59;98851.69;5002135;28;20050;-53
2022/01/08 07:27:53;;;;;;;6.60;1.52;;;;;;;4.45;82.86;98850.81;5002092;28;20624;-51
2022/01/08 07:30:20;;;;;;;4.55;2.25;;;;;;;4.47;82.98;98846.56;5003729;28;20045;-55
2022/01/08 07:32:50;;;;;;;10.68;3.60;;;;;;;4.51;82.93;98838.03;5005692;28;20049;-56
2022/01/08 07:35:21;;;;;;;8.52;2.42;;;;;;;4.55;82.96;98831.19;4999647;28;20076;-51
2022/01/08 07:37:50;;;;;;;10.20;2.97;;;;;;;4.57;82.48;98827.81;4998401;28;20042;-54
2022/01/08 07:40:18;;;;;;;6.18;2.58;;;;;;;4.61;82.61;98823.53;5004356;28;20112;-50
2022/01/08 07:42:45;;;;;;;6.45;2.55;;;;;;;4.63;82.15;98812.41;5003822;28;20038;-53
2022/01/08 07:45:15;;;;;;;6.30;2.70;;;;;;;4.66;82.90;98800.44;5001888;28;20509;-56
2022/01/08 07:47:42;;;;;;;8.85;2.58;;;;;;;4.72;82.79;98800.44;5003090;28;20045;-50
2022/01/08 07:50:09;;;;;;;12.57;3.05;;;;;;;4.74;82.89;98791.03;5001027;28;20057;-53
2022/01/08 07:52:36;;;;;;;10.00;2.08;;;;;;;4.79;82.87;98776.50;5003414;28;20441;-56
2022/01/08 07:55:03;;;;;;;6.97;1.65;;;;;;;4.81;83.16;98774.81;5003043;28;20442;-53
2022/01/08 07:57:30;;;;;;;6.45;2.83;;;;;;;4.84;82.91;98767.13;5006503;28;20046;-50
2022/01/08 07:59:56;;;;;;;9.27;2.33;;;;;;;4.87;83.18;98756.00;4996769;28;20046;-56
2022/01/08 08:02:23;;;;;;;15.60;1.50;;;;;;;4.94;83.52;98749.13;5002683;28;20613;-53
2022/01/08 08:04:50;;;;;;;9.68;3.45;;;;;;;4.95;83.55;98736.31;5002040;28;20736;-50
2022/01/08 08:07:37;;;;;;;8.30;3.42;;;;;;;4.96;83.65;98726.91;5001575;28;20050;-53
2022/01/08 08:10:08;;;;;;;11.70;2.78;;;;;;;5.01;83.84;98714.91;4999344;28;20137;-54
2022/01/08 08:12:34;;;;;;;4.75;2.03;;;;;;;5.04;83.26;98699.53;5000976;28;20081;-55
2022/01/08 08:15:01;;;;;;;7.13;2.30;;;;;;;5.05;83.25;98695.22;4997699;28;20054;-50
2022/01/08 08:17:28;;;;;;;8.10;3.28;;;;;;;5.07;83.41;98688.38;5000505;28;20053;-55
2022/01/08 08:19:54;;;;;;;3.40;2.88;;;;;;;5.11;82.89;98682.38;5002396;28;20482;-50
2022/01/08 08:22:21;;;;;;;8.80;3.03;;;;;;;5.14;83.76;98667.81;5001030;28;20046;-52
2022/01/08 08:24:48;;;;;;;8.30;3.08;;;;;;;5.18;83.29;98665.25;5001619;28;20144;-57
2022/01/08 08:27:14;;;;;;;13.57;2.75;;;;;;;5.22;83.03;98666.94;4998294;28;20061;-52
2022/01/08 08:29:41;;;;;;;10.43;1.40;;;;;;;5.26;84.13;98653.25;5000107;28;20748;-50
2022/01/08 08:32:08;;;;;;;5.57;2.80;;;;;;;5.29;84.19;98637.84;4998462;28;20054;-54
2022/01/08 08:34:35;;;;;;;6.55;2.67;;;;;;;5.34;84.29;98630.94;5006840;28;20053;-55
2022/01/08 08:37:02;;;;;;;6.95;2.83;;;;;;;5.38;83.40;98618.97;5001881;28;20049;-56
2022/01/08 08:39:29;;;;;;;9.75;2.20;;;;;;;5.42;83.45;98612.09;5003229;28;20779;-55
2022/01/08 08:41:56;;;;;;;5.90;2.47;;;;;;;5.47;84.22;98618.09;4998435;28;20115;-49
2022/01/08 08:44:22;;;;;;;6.20;2.55;;;;;;;5.52;84.53;98600.94;5006969;28;20119;-57
2022/01/08 08:46:49;;;;;;;6.65;2.10;;;;;;;5.56;83.69;98597.47;5004434;28;20050;-53
2022/01/08 08:49:15;;;;;;;7.22;2.42;;;;;;;5.59;84.29;98589.75;5004872;28;20046;-53
2022/01/08 08:51:42;;;;;;;6.88;3.30;;;;;;;5.64;84.54;98588.00;4997919;28;20054;-55
2022/01/08 08:54:09;;;;;;;4.30;2.10;;;;;;;5.68;84.12;98562.31;4997674;28;20042;-53
2022/01/08 08:56:35;;;;;;;9.02;1.60;;;;;;;5.75;84.37;98551.13;4996315;28;20041;-52
2022/01/08 08:59:02;;;;;;;7.80;2.67;;;;;;;5.77;83.72;98551.94;5002813;28;20116;-52
2022/01/08 09:01:28;;;;;;;6.20;1.95;;;;;;;5.82;84.67;98539.94;4992837;28;20394;-54
2022/01/08 09:03:55;;;;;;;6.32;2.08;;;;;;;5.88;84.24;98537.31;4997084;28;20135;-54
2022/01/08 09:06:26;;;;;;;3.60;2.25;;;;;;;5.89;83.80;98528.75;5002323;28;20506;-54
2022/01/08 09:08:53;;;;;;;5.63;1.95;;;;;;;5.94;83.09;98528.69;5004689;28;20046;-50
2022/01/08 09:11:20;;;;;;;7.50;1.58;;;;;;;5.96;83.23;98515.84;4999702;28;20398;-57
2022/01/08 09:13:47;;;;;;;5.20;2.22;;;;;;;6.00;83.52;98505.53;5004539;28;20101;-55
2022/01/08 09:16:14;;;;;;;3.75;1.50;;;;;;;6.03;83.34;98491.78;4997610;28;20092;-54
2022/01/08 09:18:41;;;;;;;7.65;2.05;;;;;;;6.06;83.90;98481.50;5006489;28;20358;-55
2022/01/08 09:21:08;;;;;;;4.32;1.73;;;;;;;6.08;84.50;98489.22;4998640;28;20057;-49
2022/01/08 09:23:35;;;;;;;6.80;3.00;;;;;;;6.13;83.46;98470.31;5001091;28;20129;-55
2022/01/08 09:26:02;;;;;;;2.97;1.33;;;;;;;6.16;84.24;98472.84;4997969;28;20050;-52
2022/01/08 09:28:30;;;;;;;5.25;1.70;;;;;;;6.19;83.52;98460.81;5001530;28;20477;-53
2022/01/08 09:30:57;;;;;;;3.05;1.55;;;;;;;6.24;85.18;98461.59;4999052;28;20112;-58
2022/01/08 09:33:25;;;;;;;4.65;1.83;;;;;;;6.25;84.13;98440.19;4998865;28;20057;-56
2022/01/08 09:35:53;;;;;;;6.10;2.85;;;;;;;6.27;84.25;98439.31;4997820;28;20470;-54
2022/01/08 09:38:19;;;;;;;5.65;2.10;;;;;;;6.31;85.02;98429.81;5002190;28;20076;-54
2022/01/08 09:40:49;;;;;;;7.57;2.25;;;;;;;6.32;83.62;98418.69;4999453;28;20082;-56
2022/01/08 09:43:17;;;;;;;4.80;2.20;;;;;;;6.36;85.17;98411.78;5004290;28;20046;-56
2022/01/08 09:45:44;;;;;;;4.40;1.67;;;;;;;6.39;84.03;98404.84;5001844;28;20097;-54
2022/01/08 09:48:11;;;;;;;5.75;2.33;;;;;;;6.42;83.93;98402.25;5005174;28;20556;-53
2022/01/08 09:50:37;;;;;;;7.25;1.50;;;;;;;6.46;83.37;98391.94;5003165;28;20108;-57
2022/01/08 09:53:04;;;;;;;4.97;2.38;;;;;;;6.50;83.32;98383.31;4997340;28;20073;-50
2022/01/08 09:55:31;;;;;;;5.60;2.13;;;;;;;6.55;83.36;98371.22;5003379;28;20049;-53
2022/01/08 09:57:57;;;;;;;3.60;1.30;;;;;;;6.57;84.71;98361.78;4999666;28;20394;-56
2022/01/08 10:00:24;;;;;;;6.93;1.65;;;;;;;6.58;84.48;98360.06;5003312;28;20045;-54
2022/01/08 10:02:52;;;;;;;4.50;1.73;;;;;;;6.62;84.78;98318.81;5003026;28;20045;-54
2022/01/08 10:05:19;;;;;;;5.70;2.17;;;;;;;6.64;84.50;98309.38;5002451;28;20046;-56
2022/01/08 10:08:02;;;;;;;2.88;2.60;;;;;;;6.68;84.46;98315.31;5003327;28;20453;-55
2022/01/08 10:10:29;;;;;;;5.50;2.00;;;;;;;6.73;84.82;98325.53;5001766;28;20054;-56
2022/01/08 10:12:59;;;;;;;2.92;1.98;;;;;;;6.73;84.61;98318.69;5004096;28;20104;-57
2022/01/08 10:18:30;;;;;;;7.75;2.05;;;;;;;6.79;84.82;98303.13;5006015;28;20046;-52
2022/01/08 10:20:58;;;;;;;5.65;1.83;;;;;;;6.85;83.75;98307.34;5008358;28;20103;-54
2022/01/08 10:23:28;;;;;;;7.05;2.45;;;;;;;6.87;85.14;98289.31;5006163;28;20046;-52
2022/01/08 10:25:59;;;;;;;4.60;1.95;;;;;;;6.92;84.34;98283.22;5005756;28;20048;-53
2022/01/08 10:28:43;;;;;;;6.43;2.03;;;;;;;6.94;83.31;98273.75;4998155;28;20116;-53
2022/01/08 10:31:16;;;;;;;3.72;2.33;;;;;;;7.01;83.39;98273.63;5008035;28;20053;-60
2022/01/08 10:33:48;;;;;;;5.85;2.47;;;;;;;7.03;83.99;98251.31;4998401;28;21010;-56
2022/01/08 10:36:20;;;;;;;3.70;2.65;;;;;;;7.08;83.27;98252.06;5005015;28;20576;-54
2022/01/08 10:38:52;;;;;;;4.60;2.30;;;;;;;7.10;82.91;98234.88;4998654;28;20073;-56
2022/01/08 10:41:20;;;;;;;7.97;4.43;;;;;;;7.13;83.52;98227.06;4999222;28;20062;-59
2022/01/08 10:43:47;;;;;;;6.35;4.53;;;;;;;7.14;82.96;98215.91;5005524;28;20112;-55
2022/01/08 10:46:18;;;;;;;7.50;3.72;;;;;;;7.15;84.02;98206.44;5001395;28;20050;-54
2022/01/08 10:48:49;;;;;;;7.30;3.42;;;;;;;7.19;84.31;98206.38;5004064;28;20066;-61
2022/01/08 10:51:20;;;;;;;8.88;4.05;;;;;;;7.23;82.98;98194.28;5003410;28;20540;-51
2022/01/08 10:54:06;;;;;;;8.55;4.15;;;;;;;7.24;83.48;98189.97;5009397;28;20045;-54
2022/01/08 10:56:36;;;;;;;5.25;2.88;;;;;;;7.27;82.55;98179.63;5005647;28;20050;-53
2022/01/08 10:59:09;;;;;;;11.90;4.53;;;;;;;7.28;82.87;98165.88;5006264;28;20054;-53
2022/01/08 11:01:39;;;;;;;9.55;4.18;;;;;;;7.28;82.53;98164.16;5001118;28;20096;-56
2022/01/08 11:04:08;;;;;;;8.43;4.63;;;;;;;7.32;83.12;98152.06;5003435;28;20057;-51
2022/01/08 11:06:54;;;;;;;6.03;3.28;;;;;;;7.30;84.19;98139.19;5000880;28;20046;-54
2022/01/08 11:09:22;;;;;;;5.85;3.30;;;;;;;7.33;83.92;98141.72;5003701;28;20042;-59
2022/01/08 11:11:50;;;;;;;3.30;2.50;;;;;;;7.37;83.10;98139.94;5003450;28;20181;-54
2022/01/08 11:17:15;;;;;;;6.35;3.58;;;;;;;7.37;84.40;98109.03;5001055;28;20057;-51
2022/01/08 11:19:45;;;;;;;8.18;2.70;;;;;;;7.40;83.32;98106.38;5008916;28;20398;-55
2022/01/08 11:22:13;;;;;;;;;;;;;;;7.35;84.59;98095.34;4988969;28;20497;-56
2022/01/08 11:24:49;;;;;;;5.72;3.55;;;;;;;7.40;84.42;98085.78;5008058;28;19921;-53
2022/01/08 11:27:20;;;;;;;4.03;3.17;;;;;;;7.44;82.77;98079.66;5006793;28;20050;-58
2022/01/08 11:29:54;;;;;;;1.98;1.50;;;;;;;7.45;83.55;98065.94;5002752;28;20057;-52
2022/01/08 11:32:24;;;;;;;4.30;2.22;;;;;;;7.49;84.02;98056.41;5005176;28;20053;-61
2022/01/08 11:34:52;;;;;;;5.22;2.08;;;;;;;7.51;83.67;98048.63;5003389;28;20046;-58
2022/01/08 11:37:23;;;;;;;6.07;3.88;;;;;;;7.53;83.32;98042.56;5008887;28;20046;-53
2022/01/08 11:39:51;;;;;;;8.07;4.85;;;;;;;7.55;82.97;98039.97;5006481;28;20379;-54
2022/01/08 11:42:21;;;;;;;3.53;2.58;;;;;;;7.56;82.77;98031.34;5008192;28;20054;-54
2022/01/08 11:44:51;;;;;;;2.80;1.58;;;;;;;7.59;82.82;98015.81;5006658;28;20061;-52
2022/01/08 11:47:20;;;;;;;5.50;2.63;;;;;;;7.62;83.95;98007.16;5000902;28;20061;-58
2022/01/08 11:49:49;;;;;;;2.72;2.13;;;;;;;7.62;82.87;97994.28;5004732;28;20046;-55
2022/01/08 11:52:20;;;;;;;3.25;1.95;;;;;;;7.66;83.06;97978.72;5003317;28;20414;-55
2022/01/08 11:54:49;;;;;;;5.18;2.72;;;;;;;7.67;83.28;97972.66;5003085;28;20697;-55
2022/01/08 11:57:18;;;;;;;6.38;2.58;;;;;;;7.70;82.20;97967.44;4998345;28;20057;-51
2022/01/08 11:59:46;;;;;;;6.53;2.35;;;;;;;7.72;83.72;97952.81;4986884;28;20050;-53
2022/01/08 12:02:19;;;;;;;1.98;1.80;;;;;;;7.75;82.20;97939.00;5002920;28;20137;-54
2022/01/08 12:04:51;;;;;;;4.65;2.90;;;;;;;7.79;82.48;97944.91;5000653;28;20064;-58
2022/01/08 12:07:34;;;;;;;3.15;1.55;;;;;;;7.77;83.76;97937.22;5002812;28;20046;-56
2022/01/08 12:10:11;;;;;;;3.60;2.22;;;;;;;7.81;83.24;97932.84;5002528;28;20054;-53